createdAt,value
2022-09-04T00:01:20.350Z,100.00
2022-09-04T00:03:50.980Z,100.00
2022-09-04T00:06:20.817Z,100.00
2022-09-04T00:09:05.789Z,100.00
2022-09-04T00:11:42.068Z,100.00
2022-09-04T00:14:12.072Z,100.00
2022-09-04T00:16:44.466Z,100.00
2022-09-04T00:19:15.553Z,100.00
2022-09-04T00:21:46.595Z,100.00
2022-09-04T00:24:16.714Z,100.00
2022-09-04T00:26:49.206Z,100.00
2022-09-04T00:29:21.398Z,100.00
2022-09-04T00:31:52.121Z,100.00
2022-09-04T00:34:30.975Z,100.00
2022-09-04T00:37:01.344Z,100.00
2022-09-04T00:39:32.387Z,100.00
2022-09-04T00:42:07.030Z,100.00
2022-09-04T00:44:46.832Z,100.00
2022-09-04T00:47:27.591Z,100.00
2022-09-04T00:50:04.928Z,100.00
2022-09-04T00:52:49.767Z,100.00
2022-09-04T00:55:34.184Z,100.00
2022-09-04T00:58:13.608Z,100.00
2022-09-04T01:00:41.879Z,100.00
2022-09-04T01:03:19.165Z,100.00
2022-09-04T01:05:58.155Z,100.00
2022-09-04T01:08:35.750Z,100.00
2022-09-04T01:11:09.638Z,100.00
2022-09-04T01:13:41.540Z,100.00
2022-09-04T01:16:11.498Z,100.00
2022-09-04T01:18:44.188Z,100.00
2022-09-04T01:21:29.193Z,100.00
2022-09-04T01:24:18.923Z,100.00
2022-09-04T01:26:51.295Z,100.00
2022-09-04T01:29:39.922Z,100.00
2022-09-04T01:32:10.925Z,100.00
2022-09-04T01:34:43.587Z,100.00
2022-09-04T01:37:21.615Z,100.00
2022-09-04T01:39:56.476Z,100.00
2022-09-04T01:42:29.474Z,100.00
2022-09-04T01:44:57.360Z,100.00
2022-09-04T01:47:26.885Z,100.00
2022-09-04T01:49:57.959Z,100.00
2022-09-04T01:52:37.865Z,100.00
2022-09-04T01:55:13.238Z,100.00
2022-09-04T01:57:48.454Z,100.00
2022-09-04T02:00:17.214Z,100.00
2022-09-04T02:02:53.530Z,100.00
2022-09-04T02:05:23.244Z,100.00
2022-09-04T02:07:55.493Z,100.00
2022-09-04T02:10:30.109Z,100.00
2022-09-04T02:13:07.310Z,100.00
2022-09-04T02:15:39.391Z,100.00
2022-09-04T02:18:11.679Z,100.00
2022-09-04T02:20:40.399Z,100.00
2022-09-04T02:23:13.646Z,100.00
2022-09-04T02:25:45.009Z,100.00
2022-09-04T02:28:34.612Z,100.00
2022-09-04T02:31:05.408Z,100.00
2022-09-04T02:33:45.472Z,100.00
2022-09-04T02:36:15.151Z,100.00
2022-09-04T02:38:47.950Z,100.00
2022-09-04T02:41:19.611Z,100.00
2022-09-04T02:43:58.349Z,100.00
2022-09-04T02:46:29.349Z,100.00
2022-09-04T02:49:03.571Z,100.00
2022-09-04T02:51:40.135Z,100.00
2022-09-04T02:54:11.556Z,100.00
2022-09-04T02:56:43.700Z,100.00
2022-09-04T02:59:31.504Z,100.00
2022-09-04T03:02:00.523Z,100.00
2022-09-04T03:04:32.385Z,100.00
2022-09-04T03:07:02.680Z,100.00
2022-09-04T03:09:33.193Z,100.00
2022-09-04T03:12:02.130Z,100.00
2022-09-04T03:14:34.667Z,100.00
2022-09-04T03:17:06.639Z,100.00
2022-09-04T03:19:37.279Z,100.00
2022-09-04T03:22:07.829Z,100.00
2022-09-04T03:24:38.949Z,100.00
2022-09-04T03:27:07.774Z,100.00
2022-09-04T03:29:39.377Z,100.00
2022-09-04T03:32:16.364Z,100.00
2022-09-04T03:34:49.176Z,100.00
2022-09-04T03:37:32.245Z,100.00
2022-09-04T03:40:10.890Z,100.00
2022-09-04T03:42:45.288Z,100.00
2022-09-04T03:45:21.203Z,100.00
2022-09-04T03:47:57.162Z,100.00
2022-09-04T03:50:28.096Z,100.00
2022-09-04T03:52:58.509Z,100.00
2022-09-04T03:55:46.196Z,100.00
2022-09-04T03:58:18.807Z,100.00
2022-09-04T04:00:57.480Z,100.00
2022-09-04T04:03:34.855Z,100.00
2022-09-04T04:06:08.843Z,100.00
2022-09-04T04:08:51.226Z,100.00
2022-09-04T04:11:26.511Z,100.00
2022-09-04T04:14:13.472Z,100.00
2022-09-04T04:16:55.876Z,100.00
2022-09-04T04:19:42.282Z,100.00
2022-09-04T04:22:18.922Z,100.00
2022-09-04T04:24:57.557Z,100.00
2022-09-04T04:27:35.984Z,100.00
2022-09-04T04:30:07.021Z,100.00
2022-09-04T04:32:56.651Z,100.00
2022-09-04T04:35:30.519Z,100.00
2022-09-04T04:38:04.956Z,100.00
2022-09-04T04:40:47.767Z,100.00
2022-09-04T04:43:19.079Z,100.00
2022-09-04T04:45:53.064Z,100.00
2022-09-04T04:48:55.210Z,100.00
2022-09-04T04:51:32.644Z,100.00
2022-09-04T04:54:07.104Z,100.00
2022-09-04T04:56:46.364Z,100.00
2022-09-04T04:59:20.537Z,100.00
2022-09-04T05:01:52.682Z,100.00
2022-09-04T05:04:27.512Z,100.00
2022-09-04T05:06:58.143Z,100.00
2022-09-04T05:09:32.011Z,100.00
2022-09-04T05:12:03.195Z,100.00
2022-09-04T05:14:38.336Z,100.00
2022-09-04T05:17:10.730Z,100.00
2022-09-04T05:19:43.908Z,100.00
2022-09-04T05:22:15.218Z,100.00
2022-09-04T05:24:50.200Z,100.00
2022-09-04T05:27:50.788Z,100.00
2022-09-04T05:30:21.393Z,100.00
2022-09-04T05:32:55.105Z,100.00
2022-09-04T05:35:35.333Z,100.00
2022-09-04T05:38:07.182Z,100.00
2022-09-04T05:40:45.009Z,100.00
2022-09-04T05:43:19.606Z,100.00
2022-09-04T05:45:52.734Z,100.00
2022-09-04T05:48:23.733Z,100.00
2022-09-04T05:51:06.730Z,100.00
2022-09-04T05:53:44.399Z,100.00
2022-09-04T05:56:37.320Z,100.00
2022-09-04T05:59:19.904Z,100.00
2022-09-04T06:02:04.591Z,100.00
2022-09-04T06:04:41.190Z,100.00
2022-09-04T06:07:12.832Z,100.00
2022-09-04T06:09:48.024Z,100.00
2022-09-04T06:12:24.143Z,100.00
2022-09-04T06:15:08.044Z,100.00
2022-09-04T06:17:43.448Z,100.00
2022-09-04T06:20:21.447Z,100.00
2022-09-04T06:23:00.164Z,100.00
2022-09-04T06:25:43.913Z,100.00
2022-09-04T06:28:45.320Z,100.00
2022-09-04T06:31:31.953Z,100.00
2022-09-04T06:34:01.634Z,100.00
2022-09-04T06:36:51.538Z,100.00
2022-09-04T06:39:44.601Z,100.00
2022-09-04T06:42:31.868Z,100.00
2022-09-04T06:45:11.608Z,100.00
2022-09-04T06:47:46.382Z,100.00
2022-09-04T06:50:20.206Z,100.00
2022-09-04T06:52:55.943Z,100.00
2022-09-04T06:55:28.217Z,100.00
2022-09-04T06:58:15.027Z,100.00
2022-09-04T07:00:46.253Z,100.00
2022-09-04T07:03:29.543Z,100.00
2022-09-04T07:06:00.792Z,100.00
2022-09-04T07:08:35.955Z,100.00
2022-09-04T07:11:14.121Z,100.00
2022-09-04T07:14:25.114Z,100.00
2022-09-04T07:16:59.202Z,100.00
2022-09-04T07:19:51.642Z,100.00
2022-09-04T07:23:04.123Z,100.00
2022-09-04T07:25:40.826Z,100.00
2022-09-04T07:28:24.473Z,100.00
2022-09-04T07:30:53.645Z,100.00
2022-09-04T07:33:25.645Z,100.00
2022-09-04T07:35:57.650Z,100.00
2022-09-04T07:38:30.919Z,100.00
2022-09-04T07:41:03.209Z,100.00
2022-09-04T07:43:37.486Z,100.00
2022-09-04T07:46:08.383Z,100.00
2022-09-04T07:48:38.361Z,100.00
2022-09-04T07:51:10.041Z,100.00
2022-09-04T07:54:08.245Z,100.00
2022-09-04T07:56:50.360Z,100.00
2022-09-04T07:59:31.189Z,100.00
2022-09-04T08:02:08.722Z,100.00
2022-09-04T08:04:59.959Z,100.00
2022-09-04T08:07:49.158Z,100.00
2022-09-04T08:10:46.467Z,100.00
2022-09-04T08:13:25.913Z,100.00
2022-09-04T08:16:00.139Z,100.00
2022-09-04T08:18:43.767Z,100.00
2022-09-04T08:21:20.780Z,100.00
2022-09-04T08:24:24.423Z,100.00
2022-09-04T08:26:59.776Z,100.00
2022-09-04T08:29:50.482Z,100.00
2022-09-04T08:32:36.721Z,100.00
2022-09-04T08:35:18.070Z,100.00
2022-09-04T08:37:52.502Z,100.00
2022-09-04T08:40:55.201Z,100.00
2022-09-04T08:43:40.637Z,100.00
2022-09-04T08:46:39.448Z,100.00
2022-09-04T08:49:35.286Z,100.00
2022-09-04T08:52:18.865Z,100.00
2022-09-04T08:54:59.130Z,100.00
2022-09-04T08:58:01.702Z,100.00
2022-09-04T09:00:30.352Z,100.00
2022-09-04T09:03:29.684Z,100.00
2022-09-04T09:06:34.566Z,100.00
2022-09-04T09:09:42.288Z,100.00
2022-09-04T09:12:40.855Z,100.00
2022-09-04T09:15:28.376Z,100.00
2022-09-04T09:18:02.420Z,100.00
2022-09-04T09:20:32.710Z,100.00
2022-09-04T09:23:20.826Z,100.00
2022-09-04T09:25:53.120Z,100.00
2022-09-04T09:29:09.626Z,100.00
2022-09-04T09:32:20.585Z,100.00
2022-09-04T09:35:17.815Z,100.00
2022-09-04T09:38:14.204Z,100.00
2022-09-04T09:41:34.340Z,100.00
2022-09-04T09:44:17.776Z,100.00
2022-09-04T09:47:17.883Z,100.00
2022-09-04T09:50:03.713Z,100.00
2022-09-04T09:52:54.019Z,100.00
2022-09-04T09:56:00.050Z,100.00
2022-09-04T09:58:56.893Z,100.00
2022-09-04T10:01:35.994Z,100.00
2022-09-04T10:04:12.956Z,100.00
2022-09-04T10:07:02.089Z,100.00
2022-09-04T10:09:49.317Z,100.00
2022-09-04T10:12:50.278Z,100.00
2022-09-04T10:15:56.906Z,100.00
2022-09-04T10:18:57.214Z,100.00
2022-09-04T10:21:52.092Z,100.00
2022-09-04T10:24:48.857Z,100.00
2022-09-04T10:27:30.172Z,100.00
2022-09-04T10:30:05.182Z,100.00
2022-09-04T10:33:11.979Z,100.00
2022-09-04T10:35:59.250Z,100.00
2022-09-04T10:38:33.561Z,100.00
2022-09-04T10:41:45.346Z,100.00
2022-09-04T10:44:38.579Z,100.00
2022-09-04T10:47:13.436Z,100.00
2022-09-04T10:50:00.738Z,100.00
2022-09-04T10:53:06.126Z,100.00
2022-09-04T10:55:54.319Z,100.00
2022-09-04T10:58:41.825Z,100.00
2022-09-04T11:01:46.329Z,100.00
2022-09-04T11:04:34.092Z,100.00
2022-09-04T11:07:25.817Z,100.00
2022-09-04T11:10:13.275Z,100.00
2022-09-04T11:13:14.759Z,100.00
2022-09-04T11:15:59.887Z,100.00
2022-09-04T11:18:51.562Z,100.00
2022-09-04T11:21:54.544Z,100.00
2022-09-04T11:24:55.811Z,100.00
2022-09-04T11:27:58.858Z,100.00
2022-09-04T11:30:30.404Z,100.00
2022-09-04T11:33:37.519Z,100.00
2022-09-04T11:36:30.293Z,100.00
2022-09-04T11:39:17.476Z,100.00
2022-09-04T11:42:00.666Z,100.00
2022-09-04T11:44:35.978Z,100.00
2022-09-04T11:47:31.091Z,100.00
2022-09-04T11:50:18.295Z,100.00
2022-09-04T11:53:21.515Z,100.00
2022-09-04T11:56:02.920Z,100.00
2022-09-04T11:58:42.227Z,100.00
2022-09-04T12:01:20.816Z,100.00
2022-09-04T12:04:04.734Z,100.00
2022-09-04T12:06:40.143Z,100.00
2022-09-04T12:09:36.895Z,100.00
2022-09-04T12:12:38.370Z,100.00
2022-09-04T12:15:20.468Z,100.00
2022-09-04T12:18:08.522Z,100.00
2022-09-04T12:21:10.734Z,100.00
2022-09-04T12:24:15.201Z,100.00
2022-09-04T12:27:01.623Z,100.00
2022-09-04T12:30:05.340Z,100.00
2022-09-04T12:33:08.274Z,100.00
2022-09-04T12:36:16.653Z,100.00
2022-09-04T12:39:26.762Z,100.00
2022-09-04T12:41:58.364Z,100.00
2022-09-04T12:44:33.155Z,100.00
2022-09-04T12:47:07.200Z,100.00
2022-09-04T12:49:48.163Z,100.00
2022-09-04T12:52:21.895Z,100.00
2022-09-04T12:54:53.835Z,100.00
2022-09-04T12:57:28.226Z,100.00
2022-09-04T13:00:01.682Z,100.00
2022-09-04T13:02:36.017Z,100.00
2022-09-04T13:05:23.630Z,100.00
2022-09-04T13:07:54.135Z,100.00
2022-09-04T13:10:25.016Z,100.00
2022-09-04T13:12:59.441Z,100.00
2022-09-04T13:15:34.535Z,100.00
2022-09-04T13:18:34.775Z,100.00
2022-09-04T13:21:09.029Z,100.00
2022-09-04T13:23:58.187Z,100.00
2022-09-04T13:26:32.262Z,100.00
2022-09-04T13:29:12.312Z,100.00
2022-09-04T13:32:00.418Z,100.00
2022-09-04T13:34:34.172Z,100.00
2022-09-04T13:37:06.220Z,99.20
2022-09-04T13:40:21.630Z,98.07
2022-09-04T13:43:15.577Z,97.24
2022-09-04T13:45:47.088Z,98.27
2022-09-04T13:48:19.353Z,99.90
2022-09-04T13:50:48.533Z,95.63
2022-09-04T13:53:19.132Z,99.11
2022-09-04T13:55:49.957Z,100.00
2022-09-04T13:58:20.305Z,100.00
2022-09-04T14:00:50.480Z,100.00
2022-09-04T14:03:28.837Z,99.04
2022-09-04T14:05:56.677Z,100.00
2022-09-04T14:08:24.556Z,100.00
2022-09-04T14:11:05.185Z,100.00
2022-09-04T14:13:42.290Z,96.40
2022-09-04T14:16:11.739Z,95.73
2022-09-04T14:18:50.889Z,96.12
2022-09-04T14:21:23.889Z,98.07
2022-09-04T14:23:56.627Z,96.28
2022-09-04T14:26:29.850Z,99.08
2022-09-04T14:29:02.798Z,98.59
2022-09-04T14:31:35.267Z,99.29
2022-09-04T14:34:15.115Z,99.14
2022-09-04T14:36:55.490Z,100.00
2022-09-04T14:39:26.354Z,97.85
2022-09-04T14:42:03.768Z,98.58
2022-09-04T14:44:52.971Z,97.36
2022-09-04T14:47:26.617Z,98.22
2022-09-04T14:49:55.959Z,98.51
2022-09-04T14:52:25.388Z,98.08
2022-09-04T14:54:54.144Z,98.45
2022-09-04T14:57:24.672Z,97.97
2022-09-04T15:00:02.401Z,99.47
2022-09-04T15:02:34.878Z,100.00
2022-09-04T15:05:04.222Z,100.00
2022-09-04T15:07:51.200Z,100.00
2022-09-04T15:10:26.439Z,100.00
2022-09-04T15:13:09.960Z,100.00
2022-09-04T15:15:40.433Z,100.00
2022-09-04T15:18:11.028Z,100.00
2022-09-04T15:20:39.470Z,100.00
2022-09-04T15:23:08.620Z,100.00
2022-09-04T15:26:00.654Z,100.00
2022-09-04T15:28:36.674Z,100.00
2022-09-04T15:31:17.936Z,99.89
2022-09-04T15:33:47.756Z,99.44
2022-09-04T15:36:18.117Z,100.00
2022-09-04T15:38:51.086Z,100.00
2022-09-04T15:41:22.763Z,100.00
2022-09-04T15:43:51.783Z,100.00
2022-09-04T15:46:25.383Z,97.75
2022-09-04T15:48:57.283Z,98.62
2022-09-04T15:51:30.087Z,97.76
2022-09-04T15:54:22.091Z,99.96
2022-09-04T15:56:57.636Z,98.31
2022-09-04T15:59:28.597Z,99.51
2022-09-04T16:02:03.326Z,98.43
2022-09-04T16:04:33.799Z,96.17
2022-09-04T16:07:20.355Z,98.40
2022-09-04T16:09:50.325Z,95.49
2022-09-04T16:12:19.346Z,94.62
2022-09-04T16:14:49.410Z,98.94
2022-09-04T16:17:20.981Z,98.07
2022-09-04T16:19:53.438Z,100.00
2022-09-04T16:22:30.777Z,96.39
2022-09-04T16:25:07.317Z,99.04
2022-09-04T16:27:44.853Z,98.85
2022-09-04T16:30:26.107Z,99.64
2022-09-04T16:32:55.360Z,99.19
2022-09-04T16:35:23.327Z,98.85
2022-09-04T16:37:52.783Z,99.74
2022-09-04T16:40:25.864Z,99.58
2022-09-04T16:42:55.238Z,99.60
2022-09-04T16:45:24.749Z,100.00
2022-09-04T16:47:56.659Z,97.81
2022-09-04T16:50:30.187Z,98.32
2022-09-04T16:53:13.390Z,98.99
2022-09-04T16:55:44.744Z,100.00
2022-09-04T16:58:40.046Z,100.00
2022-09-04T17:01:16.206Z,100.00
2022-09-04T17:04:15.184Z,100.00
2022-09-04T17:06:47.516Z,100.00
2022-09-04T17:09:21.546Z,100.00
2022-09-04T17:11:55.366Z,100.00
2022-09-04T17:14:25.583Z,100.00
2022-09-04T17:17:18.407Z,100.00
2022-09-04T17:20:05.293Z,100.00
2022-09-04T17:26:26.805Z,100.00
2022-09-04T17:29:01.820Z,100.00
2022-09-04T17:29:15.825Z,100.00
2022-09-04T17:31:23.324Z,100.00
2022-09-04T17:38:51.035Z,100.00
2022-09-04T17:40:48.304Z,100.00
2022-09-04T17:40:49.541Z,100.00
2022-09-04T17:42:25.218Z,100.00
2022-09-04T17:44:56.771Z,100.00
2022-09-04T17:47:30.574Z,100.00
2022-09-04T17:49:58.571Z,100.00
2022-09-04T17:52:28.330Z,100.00
2022-09-04T17:54:59.589Z,100.00
2022-09-04T17:57:32.352Z,100.00
2022-09-04T18:00:04.020Z,100.00
2022-09-04T18:02:37.671Z,100.00
2022-09-04T18:05:13.344Z,100.00
2022-09-04T18:08:07.520Z,100.00
2022-09-04T18:10:34.220Z,100.00
2022-09-04T18:13:36.319Z,100.00
2022-09-04T18:16:04.813Z,100.00
2022-09-04T18:18:39.178Z,100.00
2022-09-04T18:21:13.205Z,100.00
2022-09-04T18:23:52.090Z,100.00
2022-09-04T18:26:31.861Z,100.00
2022-09-04T18:33:28.396Z,100.00
2022-09-04T18:37:10.293Z,100.00
2022-09-04T18:37:16.432Z,100.00
2022-09-04T18:39:08.179Z,100.00
2022-09-04T18:45:13.099Z,100.00
2022-09-04T18:50:38.511Z,100.00
2022-09-04T18:50:41.034Z,100.00
2022-09-04T18:50:51.993Z,100.00
2022-09-04T18:52:58.190Z,100.00
2022-09-04T18:55:30.012Z,100.00
2022-09-04T18:58:02.154Z,100.00
2022-09-04T19:00:31.057Z,100.00
2022-09-04T19:03:06.760Z,100.00
2022-09-04T19:05:45.028Z,100.00
2022-09-04T19:08:14.707Z,100.00
2022-09-04T19:10:46.074Z,100.00
2022-09-04T19:13:14.611Z,100.00
2022-09-04T19:15:49.616Z,100.00
2022-09-04T19:18:24.622Z,100.00
2022-09-04T19:20:54.264Z,100.00
2022-09-04T19:23:27.767Z,100.00
2022-09-04T19:25:57.664Z,100.00
2022-09-04T19:28:27.393Z,100.00
2022-09-04T19:30:56.810Z,100.00
2022-09-04T19:33:31.780Z,100.00
2022-09-04T19:36:02.097Z,100.00
2022-09-04T19:44:15.332Z,100.00
2022-09-04T19:46:04.149Z,100.00
2022-09-04T19:46:14.248Z,100.00
2022-09-04T19:47:07.782Z,100.00
2022-09-04T19:53:23.333Z,100.00
2022-09-04T19:53:23.976Z,100.00
2022-09-04T19:55:41.800Z,100.00
2022-09-04T19:58:11.642Z,100.00
2022-09-04T20:00:44.455Z,100.00
2022-09-04T20:03:29.760Z,100.00
2022-09-04T20:06:21.153Z,100.00
2022-09-04T20:08:51.805Z,100.00
2022-09-04T20:11:30.621Z,100.00
2022-09-04T20:14:13.745Z,100.00
2022-09-04T20:16:48.507Z,100.00
2022-09-04T20:19:27.759Z,100.00
2022-09-04T20:21:59.256Z,100.00
2022-09-04T20:24:28.169Z,100.00
2022-09-04T20:26:57.705Z,100.00
2022-09-04T20:29:28.616Z,100.00
2022-09-04T20:31:57.453Z,100.00
2022-09-04T20:34:31.227Z,100.00
2022-09-04T20:37:19.398Z,100.00
2022-09-04T20:39:49.831Z,100.00
2022-09-04T20:42:21.009Z,100.00
2022-09-04T20:46:16.646Z,100.00
2022-09-04T20:52:44.830Z,100.00
2022-09-04T20:53:05.826Z,100.00
2022-09-04T20:53:24.609Z,100.00
2022-09-04T20:56:00.247Z,100.00
2022-09-04T21:03:07.862Z,100.00
2022-09-04T21:03:18.415Z,100.00
2022-09-04T21:04:26.771Z,100.00
2022-09-04T21:07:10.495Z,100.00
2022-09-04T21:09:55.149Z,100.00
2022-09-04T21:12:28.055Z,100.00
2022-09-04T21:14:57.747Z,100.00
2022-09-04T21:17:36.978Z,100.00
2022-09-04T21:20:36.206Z,100.00
2022-09-04T21:23:27.305Z,100.00
2022-09-04T21:26:00.121Z,100.00
2022-09-04T21:28:58.320Z,100.00
2022-09-04T21:31:52.884Z,100.00
2022-09-04T21:34:32.946Z,100.00
2022-09-04T21:37:10.288Z,100.00
2022-09-04T21:40:03.576Z,100.00
2022-09-04T21:42:41.439Z,100.00
2022-09-04T21:45:21.655Z,100.00
2022-09-04T21:48:18.115Z,100.00
2022-09-04T21:50:59.050Z,100.00
2022-09-04T21:53:54.837Z,100.00
2022-09-04T22:01:22.241Z,100.00
2022-09-04T22:02:41.324Z,100.00
2022-09-04T22:02:55.715Z,100.00
2022-09-04T22:05:26.300Z,100.00
2022-09-04T22:13:27.026Z,100.00
2022-09-04T22:13:40.089Z,100.00
2022-09-04T22:13:50.435Z,100.00
2022-09-04T22:16:29.521Z,100.00
2022-09-04T22:19:25.151Z,100.00
2022-09-04T22:22:04.501Z,100.00
2022-09-04T22:25:13.104Z,100.00
2022-09-04T22:28:09.141Z,100.00
2022-09-04T22:30:42.834Z,100.00
2022-09-04T22:33:28.214Z,100.00
2022-09-04T22:36:35.711Z,100.00
2022-09-04T22:39:32.434Z,100.00
2022-09-04T22:42:46.261Z,100.00
2022-09-04T22:45:28.217Z,100.00
2022-09-04T22:48:05.882Z,100.00
2022-09-04T22:51:06.664Z,100.00
2022-09-04T22:53:52.235Z,100.00
2022-09-04T22:56:25.487Z,100.00
2022-09-04T22:59:26.015Z,100.00
2022-09-04T23:03:07.070Z,100.00
2022-09-04T23:05:49.238Z,100.00
2022-09-04T23:13:51.499Z,100.00
2022-09-04T23:14:00.387Z,100.00
2022-09-04T23:14:34.942Z,100.00
2022-09-04T23:17:33.538Z,100.00
2022-09-04T23:26:31.609Z,100.00
2022-09-04T23:26:47.350Z,100.00
2022-09-04T23:26:58.642Z,100.00
2022-09-04T23:30:02.528Z,100.00
2022-09-04T23:33:01.259Z,100.00
2022-09-04T23:35:34.624Z,100.00
2022-09-04T23:38:27.455Z,100.00
2022-09-04T23:40:55.645Z,100.00
2022-09-04T23:43:46.536Z,100.00
2022-09-04T23:46:33.155Z,100.00
2022-09-04T23:49:11.175Z,100.00
2022-09-04T23:51:41.799Z,100.00
2022-09-04T23:54:26.160Z,100.00
2022-09-04T23:56:55.477Z,100.00
2022-09-04T23:59:38.357Z,100.00
